Blue Ridge Highway — 3FEY4 — position and weather

sailwx.info

Track history (hours):
 
Tides and Currents Weather Stations Pressure Air Temp Water Temp Dewpoint Dewpoint Depression Visibility Wind Speed Wind Dir Waves Ship Positions

Blue Ridge Highway

Last reported at 2017-Dec-11 12:10 UTC. Time now 2017-Dec-11 19:18 UTC.
Position N 33°59' E 136°44'.

Length 180 m; draft 8.4 m.

Type: Cargo ship. MMSI: 355558000.

Date/timePositionNaut miles runAvg speedWind from/ knotsBaromVisibWave heightAir tempDewpointWater temp
2017-Dec-11 12:10N 33°59' E 136°44'3912.9
2017-Dec-11 09:07N 34°38' E 136°54'217.9
2017-Dec-11 09:00N 34°39' E 136°52'917.4
2017-Dec-11 08:29N 34°46' E 136°46'817.3
2017-Dec-11 08:00N 34°55' E 136°46'714.8
2017-Dec-11 07:30N 35°01' E 136°50'2 4.0
2017-Dec-11 06:58N 35°03' E 136°51'0 0.0
2017-Dec-11 06:28N 35°03' E 136°51'0 0.0
2017-Dec-11 05:55N 35°03' E 136°51'0 0.0
2017-Dec-11 05:25N 35°03' E 136°51'0 0.0
2017-Dec-11 04:55N 35°03' E 136°51'0 0.0
2017-Dec-11 04:25N 35°03' E 136°51'0 0.0
2017-Dec-11 03:55N 35°03' E 136°51'0 0.0
2017-Dec-11 03:25N 35°03' E 136°51'0 0.0
2017-Dec-11 02:55N 35°03' E 136°51'0 0.0
2017-Dec-11 02:25N 35°03' E 136°51'0 0.0
2017-Dec-11 01:55N 35°03' E 136°51'0 0.0
2017-Dec-11 01:28N 35°03' E 136°51'0 0.0
2017-Dec-11 00:55N 35°03' E 136°51'0 0.0
2017-Dec-11 00:25N 35°03' E 136°51'0 0.0
2017-Dec-10 23:58N 35°03' E 136°51'0 0.0
2017-Dec-10 23:25N 35°03' E 136°51'0 0.0
2017-Dec-10 22:58N 35°03' E 136°51'0 0.0
2017-Dec-10 22:31N 35°03' E 136°51'1 2.0
2017-Dec-10 22:00N 35°02' E 136°51'5 9.3
2017-Dec-10 21:30N 34°58' E 136°48'5 9.4
2017-Dec-10 21:00N 34°54' E 136°46'2 3.5
2017-Dec-10 20:27N 34°53' E 136°44'0 0.2
2017-Dec-10 19:57N 34°53' E 136°44'0 0.0
2017-Dec-10 19:27N 34°53' E 136°44'0 0.0
2017-Dec-10 18:58N 34°53' E 136°44'0 0.0
2017-Dec-10 18:28N 34°53' E 136°44'0 0.0
2017-Dec-10 17:58N 34°53' E 136°44'0 0.0
2017-Dec-10 17:28N 34°53' E 136°44'0 0.1
2017-Dec-10 16:58N 34°53' E 136°44'0 0.0
2017-Dec-10 16:28N 34°53' E 136°44'0 0.0
2017-Dec-10 15:58N 34°53' E 136°44'0 0.0
2017-Dec-10 15:28N 34°53' E 136°44'0 0.0
2017-Dec-10 14:52N 34°53' E 136°44'0 0.0
2017-Dec-10 14:28N 34°53' E 136°44'0 0.0
2017-Dec-10 13:58N 34°53' E 136°44'0 0.0
2017-Dec-10 13:28N 34°53' E 136°44'0 0.0
2017-Dec-10 12:58N 34°53' E 136°44'0 0.0
2017-Dec-10 12:28N 34°53' E 136°44'0 0.0
2017-Dec-10 11:58N 34°53' E 136°44'0 0.0
2017-Dec-10 11:28N 34°53' E 136°44'0 0.0
2017-Dec-10 10:58N 34°53' E 136°44'0 0.1
2017-Dec-10 10:28N 34°53' E 136°44'0 0.0
2017-Dec-10 09:58N 34°53' E 136°44'0 0.0
2017-Dec-10 09:28N 34°53' E 136°44'0 0.0
2017-Dec-10 08:58N 34°53' E 136°44'0 0.0
2017-Dec-10 08:28N 34°53' E 136°44'0 0.0
2017-Dec-10 07:58N 34°53' E 136°44'0 0.1
2017-Dec-10 07:28N 34°53' E 136°44'0 0.0
2017-Dec-10 06:58N 34°53' E 136°44'0 0.1
2017-Dec-10 06:28N 34°53' E 136°44'0 0.0
2017-Dec-10 05:58N 34°53' E 136°44'0 0.0
2017-Dec-10 05:28N 34°53' E 136°44'0 0.0
2017-Dec-10 04:58N 34°53' E 136°44'0 0.0
2017-Dec-10 04:28N 34°53' E 136°44'0 0.0
2017-Dec-10 03:58N 34°53' E 136°44'0 0.0
2017-Dec-10 03:28N 34°53' E 136°44'0 0.0
2017-Dec-10 02:58N 34°53' E 136°44'0 0.0
2017-Dec-10 02:28N 34°53' E 136°44'0 0.0
2017-Dec-10 01:52N 34°53' E 136°44'0 0.0
2017-Dec-10 01:28N 34°53' E 136°44'0 0.1
2017-Dec-10 01:01N 34°53' E 136°44'2 4.8
2017-Dec-10 00:30N 34°50' E 136°44'613.0
2017-Dec-10 00:00N 34°44' E 136°46'816.5
2017-Dec-09 23:30N 34°38' E 136°53'815.6
2017-Dec-09 23:00N 34°33' E 137°01'510.9
2017-Dec-09 22:30N 34°28' E 137°03'5 9.1
2017-Dec-09 22:00N 34°24' E 137°03'28 4.7
2017-Dec-09 16:00N 33°59' E 136°48'  
Track history (hours):
 
Tides and Currents Weather Stations Pressure Air Temp Water Temp Dewpoint Dewpoint Depression Visibility Wind Speed Wind Dir Waves Ship Positions

Blue Ridge Highway

Last reported at 2017-Dec-11 12:10 UTC. Time now 2017-Dec-11 19:18 UTC.
Position N 33°59' E 136°44'.

Length 180 m; draft 8.4 m.

Type: Cargo ship. MMSI: 355558000.

Date/timePositionNaut miles runAvg speedWind from/ knotsBaromVisibWave heightAir tempDewpointWater temp
2017-Dec-11 12:10N 33°59' E 136°44'3912.9
2017-Dec-11 09:07N 34°38' E 136°54'217.9
2017-Dec-11 09:00N 34°39' E 136°52'917.4
2017-Dec-11 08:29N 34°46' E 136°46'817.3
2017-Dec-11 08:00N 34°55' E 136°46'714.8
2017-Dec-11 07:30N 35°01' E 136°50'2 4.0
2017-Dec-11 06:58N 35°03' E 136°51'0 0.0
2017-Dec-11 06:28N 35°03' E 136°51'0 0.0
2017-Dec-11 05:55N 35°03' E 136°51'0 0.0
2017-Dec-11 05:25N 35°03' E 136°51'0 0.0
2017-Dec-11 04:55N 35°03' E 136°51'0 0.0
2017-Dec-11 04:25N 35°03' E 136°51'0 0.0
2017-Dec-11 03:55N 35°03' E 136°51'0 0.0
2017-Dec-11 03:25N 35°03' E 136°51'0 0.0
2017-Dec-11 02:55N 35°03' E 136°51'0 0.0
2017-Dec-11 02:25N 35°03' E 136°51'0 0.0
2017-Dec-11 01:55N 35°03' E 136°51'0 0.0
2017-Dec-11 01:28N 35°03' E 136°51'0 0.0
2017-Dec-11 00:55N 35°03' E 136°51'0 0.0
2017-Dec-11 00:25N 35°03' E 136°51'0 0.0
2017-Dec-10 23:58N 35°03' E 136°51'0 0.0
2017-Dec-10 23:25N 35°03' E 136°51'0 0.0
2017-Dec-10 22:58N 35°03' E 136°51'0 0.0
2017-Dec-10 22:31N 35°03' E 136°51'1 2.0
2017-Dec-10 22:00N 35°02' E 136°51'5 9.3
2017-Dec-10 21:30N 34°58' E 136°48'5 9.4
2017-Dec-10 21:00N 34°54' E 136°46'2 3.5
2017-Dec-10 20:27N 34°53' E 136°44'0 0.2
2017-Dec-10 19:57N 34°53' E 136°44'0 0.0
2017-Dec-10 19:27N 34°53' E 136°44'0 0.0
2017-Dec-10 18:58N 34°53' E 136°44'0 0.0
2017-Dec-10 18:28N 34°53' E 136°44'0 0.0
2017-Dec-10 17:58N 34°53' E 136°44'0 0.0
2017-Dec-10 17:28N 34°53' E 136°44'0 0.1
2017-Dec-10 16:58N 34°53' E 136°44'0 0.0
2017-Dec-10 16:28N 34°53' E 136°44'0 0.0
2017-Dec-10 15:58N 34°53' E 136°44'0 0.0
2017-Dec-10 15:28N 34°53' E 136°44'0 0.0
2017-Dec-10 14:52N 34°53' E 136°44'0 0.0
2017-Dec-10 14:28N 34°53' E 136°44'0 0.0
2017-Dec-10 13:58N 34°53' E 136°44'0 0.0
2017-Dec-10 13:28N 34°53' E 136°44'0 0.0
2017-Dec-10 12:58N 34°53' E 136°44'0 0.0
2017-Dec-10 12:28N 34°53' E 136°44'0 0.0
2017-Dec-10 11:58N 34°53' E 136°44'0 0.0
2017-Dec-10 11:28N 34°53' E 136°44'0 0.0
2017-Dec-10 10:58N 34°53' E 136°44'0 0.1
2017-Dec-10 10:28N 34°53' E 136°44'0 0.0
2017-Dec-10 09:58N 34°53' E 136°44'0 0.0
2017-Dec-10 09:28N 34°53' E 136°44'0 0.0
2017-Dec-10 08:58N 34°53' E 136°44'0 0.0
2017-Dec-10 08:28N 34°53' E 136°44'0 0.0
2017-Dec-10 07:58N 34°53' E 136°44'0 0.1
2017-Dec-10 07:28N 34°53' E 136°44'0 0.0
2017-Dec-10 06:58N 34°53' E 136°44'0 0.1
2017-Dec-10 06:28N 34°53' E 136°44'0 0.0
2017-Dec-10 05:58N 34°53' E 136°44'0 0.0
2017-Dec-10 05:28N 34°53' E 136°44'0 0.0
2017-Dec-10 04:58N 34°53' E 136°44'0 0.0
2017-Dec-10 04:28N 34°53' E 136°44'0 0.0
2017-Dec-10 03:58N 34°53' E 136°44'0 0.0
2017-Dec-10 03:28N 34°53' E 136°44'0 0.0
2017-Dec-10 02:58N 34°53' E 136°44'0 0.0
2017-Dec-10 02:28N 34°53' E 136°44'0 0.0
2017-Dec-10 01:52N 34°53' E 136°44'0 0.0
2017-Dec-10 01:28N 34°53' E 136°44'0 0.1
2017-Dec-10 01:01N 34°53' E 136°44'2 4.8
2017-Dec-10 00:30N 34°50' E 136°44'613.0
2017-Dec-10 00:00N 34°44' E 136°46'816.5
2017-Dec-09 23:30N 34°38' E 136°53'815.6
2017-Dec-09 23:00N 34°33' E 137°01'510.9
2017-Dec-09 22:30N 34°28' E 137°03'5 9.1
2017-Dec-09 22:00N 34°24' E 137°03'28 4.7
2017-Dec-09 16:00N 33°59' E 136°48'  

Dump ship's entire track history